»·PEaware :: N25836 KLAX-KLAS

N25836 :: KLAX-KLAS

FLIGHT INFORMATION

Flight Status: Arrived
Operator: Privately registered:
United States
More flights under this callsign
Pilot: Rodrigo F. (15632)
Aircraft: ECLIPSE 500
(EA50)
More flights by this aircraft type
Origin: KLAX Los Angeles Intl
United States
Destination: KLAS McCarran Intl
United States
More flights between these airports :: More routes between these airports
Route: +ORCKA2 MISEN KEPEC6
File this flight plan on PilotEdge
Remarks:
Altitude:
(Current/Filed)
270ft
Speed:
(Current/Filed)
350kts
Departed: 02-Oct-18 06:56 PM
Arrived: 02-Oct-18 07:58 PM
Distance/Time
Traveled:
204nm/1:02
Distance/Time
To Go:
Arrived

Flight Plot

Page will automatically refresh every two minutes.

Flight plan parsing failed; only flown route is shown


Map Options




Map Legend


Flown Route
Filed Route
Departure Airport
Arrival Airport
Navaid (VOR, NDB)
Fix

Horizontal Profiles

Position Reports

Time Latitude Longitude Heading Altitude Ground
Speed
02-Oct-18 18:31 33.933534 -118.396940 287 108ft 0kts
02-Oct-18 18:32 33.933534 -118.396940 287 108ft 0kts
02-Oct-18 18:33 33.933534 -118.396940 287 108ft 0kts
02-Oct-18 18:34 33.933534 -118.396940 287 108ft 0kts
02-Oct-18 18:35 33.933534 -118.396940 287 108ft 0kts
02-Oct-18 18:36 33.933534 -118.396940 287 108ft 0kts
02-Oct-18 18:37 33.933534 -118.396940 287 108ft 0kts
02-Oct-18 18:38 33.933534 -118.396940 287 108ft 0kts
02-Oct-18 18:39 33.933534 -118.396940 287 108ft 0kts
02-Oct-18 18:40 33.933534 -118.396940 287 108ft 0kts
02-Oct-18 18:41 33.933534 -118.396940 287 108ft 0kts
02-Oct-18 18:42 33.933534 -118.396940 287 108ft 0kts
02-Oct-18 18:43 33.933534 -118.396940 287 108ft 0kts
02-Oct-18 18:44 33.933534 -118.396940 287 108ft 0kts
02-Oct-18 18:45 33.933534 -118.396940 287 108ft 0kts
02-Oct-18 18:46 33.933534 -118.396940 287 108ft 0kts
02-Oct-18 18:47 33.933534 -118.396940 287 108ft 0kts
02-Oct-18 18:48 33.933534 -118.396940 287 108ft 0kts
02-Oct-18 18:49 33.933534 -118.396940 287 108ft 0kts
02-Oct-18 18:50 33.933596 -118.397093 303 108ft 0kts
02-Oct-18 18:51 33.934139 -118.398104 332 108ft 7kts
02-Oct-18 18:52 33.934883 -118.394970 82 108ft 14kts
02-Oct-18 18:53 33.935636 -118.390955 7 108ft 0kts
02-Oct-18 18:54 33.935636 -118.390955 7 108ft 0kts
02-Oct-18 18:55 33.935636 -118.390955 7 108ft 0kts
02-Oct-18 18:56 33.935636 -118.390955 7 108ft 0kts
02-Oct-18 18:57 33.936414 -118.391800 267 108ft 13kts
02-Oct-18 18:58 33.934135 -118.419824 265 563ft 130kts
02-Oct-18 18:59 33.928587 -118.473613 246 2128ft 179kts
02-Oct-18 19:00 33.909312 -118.531724 247 3851ft 187kts
02-Oct-18 19:01 33.890150 -118.589547 248 4939ft 187kts
02-Oct-18 19:02 33.851241 -118.619713 139 5266ft 220kts
02-Oct-18 19:03 33.849235 -118.564195 51 7324ft 188kts
02-Oct-18 19:04 33.881121 -118.514866 49 9866ft 184kts
02-Oct-18 19:05 33.909096 -118.470454 46 12441ft 148kts
02-Oct-18 19:06 33.936903 -118.425027 50 13711ft 193kts
02-Oct-18 19:07 33.970912 -118.365729 51 14922ft 238kts
02-Oct-18 19:08 34.010563 -118.295977 52 16111ft 269kts
02-Oct-18 19:09 34.054346 -118.218779 52 17299ft 289kts
02-Oct-18 19:10 34.100077 -118.137919 52 18475ft 300kts
02-Oct-18 19:11 34.146072 -118.056397 52 19509ft 310kts
02-Oct-18 19:12 34.195035 -117.969413 52 20517ft 317kts
02-Oct-18 19:13 34.244641 -117.881086 52 21524ft 320kts
02-Oct-18 19:14 34.294530 -117.792008 52 22530ft 321kts
02-Oct-18 19:15 34.344259 -117.703015 52 23532ft 320kts
02-Oct-18 19:16 34.395949 -117.616037 50 24542ft 318kts
02-Oct-18 19:17 34.447474 -117.529592 50 25551ft 316kts
02-Oct-18 19:18 34.498465 -117.443886 50 26557ft 313kts
02-Oct-18 19:19 34.549584 -117.357789 50 26971ft 328kts
02-Oct-18 19:20 34.603862 -117.266127 51 26966ft 349kts
02-Oct-18 19:21 34.661338 -117.168797 51 26963ft 363kts
02-Oct-18 19:22 34.719281 -117.070327 51 26478ft 337kts
02-Oct-18 19:23 34.771703 -116.981072 51 25461ft 316kts
02-Oct-18 19:24 34.821664 -116.895822 51 24454ft 305kts
02-Oct-18 19:25 34.869866 -116.813351 50 23884ft 285kts
02-Oct-18 19:26 34.913384 -116.738725 50 23885ft 259kts
02-Oct-18 19:27 34.953086 -116.668813 50 23884ft 243kts
02-Oct-18 19:28 34.990633 -116.602380 50 23885ft 233kts
02-Oct-18 19:29 35.030860 -116.531183 51 23946ft 280kts
02-Oct-18 19:30 35.077786 -116.447781 52 23947ft 317kts
02-Oct-18 19:31 35.136988 -116.361491 42 23646ft 360kts
02-Oct-18 19:32 35.205837 -116.274570 43 21673ft 356kts
02-Oct-18 19:33 35.273612 -116.189321 43 19668ft 346kts
02-Oct-18 19:34 35.339449 -116.106401 43 17665ft 335kts
02-Oct-18 19:35 35.403427 -116.025640 43 15658ft 326kts
02-Oct-18 19:36 35.465378 -115.947272 43 13668ft 317kts
02-Oct-18 19:37 35.525279 -115.871320 43 13033ft 312kts
02-Oct-18 19:38 35.585720 -115.794503 43 13030ft 314kts
02-Oct-18 19:39 35.646149 -115.717529 43 13032ft 314kts
02-Oct-18 19:40 35.706675 -115.640246 43 13032ft 314kts
02-Oct-18 19:41 35.775385 -115.581269 4 13035ft 305kts
02-Oct-18 19:42 35.859705 -115.571695 0 12978ft 304kts
02-Oct-18 19:43 35.944045 -115.564375 12 12968ft 307kts
02-Oct-18 19:44 35.991676 -115.485519 65 12812ft 292kts
02-Oct-18 19:45 36.023412 -115.395189 68 11394ft 296kts
02-Oct-18 19:46 36.024288 -115.304767 94 9598ft 239kts
02-Oct-18 19:47 36.019554 -115.224660 95 9003ft 239kts
02-Oct-18 19:48 36.014376 -115.142562 96 8544ft 242kts
02-Oct-18 19:49 36.009171 -115.061375 96 7982ft 239kts
02-Oct-18 19:50 36.004276 -114.980051 95 7979ft 232kts
02-Oct-18 19:51 35.999506 -114.900481 94 7992ft 231kts
02-Oct-18 19:52 35.994503 -114.818028 95 7377ft 234kts
02-Oct-18 19:53 36.027660 -114.768025 334 6582ft 235kts
02-Oct-18 19:54 36.058347 -114.836503 291 5798ft 239kts
02-Oct-18 19:55 36.073541 -114.911350 268 4971ft 203kts
02-Oct-18 19:56 36.073582 -114.976289 269 4495ft 192kts
02-Oct-18 19:57 36.073672 -115.033369 266 3636ft 151kts
02-Oct-18 19:58 36.073663 -115.079837 266 2890ft 124kts
02-Oct-18 19:59 36.073672 -115.120682 264 2290ft 114kts
02-Oct-18 20:00 36.074140 -115.149232 297 2117ft 18kts
02-Oct-18 20:01 36.074672 -115.150421 300 2117ft 0kts
02-Oct-18 20:02 36.074672 -115.150421 300 2117ft 0kts
02-Oct-18 20:03 36.074733 -115.150550 300 2117ft 6kts
02-Oct-18 20:04 36.077125 -115.152398 335 2117ft 0kts
02-Oct-18 20:05 36.077125 -115.152398 335 2117ft 0kts
02-Oct-18 20:06 36.077125 -115.152398 335 2117ft 0kts
02-Oct-18 20:07 36.077125 -115.152398 335 2117ft 0kts
02-Oct-18 20:08 36.078033 -115.154284 269 2117ft 19kts
02-Oct-18 20:09 36.078034 -115.162723 269 2117ft 18kts
02-Oct-18 20:10 36.078026 -115.163878 268 2117ft 0kts
02-Oct-18 20:11 36.078025 -115.163900 268 2117ft 1kts
02-Oct-18 20:12 36.078012 -115.167718 270 2117ft 20kts
02-Oct-18 20:13 36.079800 -115.170204 24 2117ft 20kts
02-Oct-18 20:14 36.081945 -115.171065 341 2117ft 3kts

Navigation Log

Ident Type
Flight plan parsing failed, navigation log unavailable